Time;durP1;ratioP1;P1;durP2;ratioP2;P2;SDS_P1;SDS_P2;PMS_P1;PMS_P2;Temp;Humidity;BMP_temperature;BMP_pressure;BME280_temperature;BME280_humidity;BME280_pressure;Samples;Min_cycle;Max_cycle;Signal;HPM_P1;HPM_P2
2022/07/09 00:11:39;;;;;;;5.77;3.10;;;;;;;23.57;44.95;99680.22;30647617;29;20058;-80
2022/07/09 00:26:41;;;;;;;12.30;3.47;;;;;;;23.51;44.87;99676.69;30665826;29;20062;-79
2022/07/09 00:41:43;;;;;;;9.07;3.37;;;;;;;23.43;45.41;99671.72;30654460;29;20051;-80
2022/07/09 00:56:45;;;;;;;15.40;3.53;;;;;;;23.21;46.23;99660.09;30644195;29;20052;-80
2022/07/09 01:11:48;;;;;;;12.48;3.70;;;;;;;23.12;46.55;99667.47;30632959;29;20047;-80
2022/07/09 01:26:52;;;;;;;8.73;3.30;;;;;;;23.15;46.59;99673.97;30638685;29;20486;-80
2022/07/09 01:41:54;;;;;;;17.48;4.20;;;;;;;23.20;46.21;99675.94;30626150;29;20151;-81
2022/07/09 01:56:56;;;;;;;9.37;3.43;;;;;;;23.09;47.22;99673.28;30637366;29;20067;-79
2022/07/09 02:11:58;;;;;;;8.60;4.37;;;;;;;22.94;48.75;99667.34;30628037;29;20051;-78
2022/07/09 02:27:00;;;;;;;14.60;3.90;;;;;;;22.76;50.02;99683.28;30625278;29;20061;-79
2022/07/09 02:42:02;;;;;;;9.33;4.43;;;;;;;22.72;51.01;99677.25;30624622;29;20152;-80
2022/07/09 02:57:04;;;;;;;11.80;5.33;;;;;;;22.97;51.95;99685.69;30624112;29;20058;-80
2022/07/09 03:12:07;;;;;;;9.30;3.83;;;;;;;23.41;51.15;99682.56;30613809;29;20051;-79
2022/07/09 03:27:09;;;;;;;9.33;3.90;;;;;;;23.55;49.60;99677.19;30629281;29;20071;-80
2022/07/09 03:42:12;;;;;;;10.67;3.90;;;;;;;23.85;47.53;99694.53;30645235;29;20055;-80
2022/07/09 03:57:14;;;;;;;14.60;4.32;;;;;;;24.18;45.52;99679.53;30632640;29;20055;-80
2022/07/09 04:12:16;;;;;;;;;;;;;;;24.67;45.30;99671.88;30646382;29;20047;-79
2022/07/09 04:27:18;;;;;;;9.88;5.35;;;;;;;25.21;45.16;99667.31;30659193;29;20388;-82
2022/07/09 04:42:20;;;;;;;13.85;6.35;;;;;;;25.58;45.69;99660.84;30653193;29;20417;-80
2022/07/09 04:57:22;;;;;;;10.40;5.53;;;;;;;26.31;44.41;99647.09;30633026;29;20143;-81
2022/07/09 05:12:24;;;;;;;24.85;8.00;;;;;;;27.30;42.59;99648.13;30650124;29;20047;-80
2022/07/09 05:27:27;;;;;;;10.85;5.90;;;;;;;27.72;41.83;99636.91;30631794;29;20062;-79
2022/07/09 05:42:29;;;;;;;11.57;5.97;;;;;;;28.43;40.46;99630.56;30651243;28;20052;-80
2022/07/09 05:57:32;;;;;;;11.38;5.10;;;;;;;28.68;38.92;99621.69;30629045;29;20059;-80
2022/07/09 06:12:35;;;;;;;18.25;5.57;;;;;;;28.73;39.21;99615.94;30620919;29;20044;-78
2022/07/09 06:27:37;;;;;;;9.75;3.92;;;;;;;29.41;36.08;99611.72;30640970;28;20063;-79
2022/07/09 06:42:39;;;;;;;14.38;4.68;;;;;;;29.57;34.10;99596.38;30636096;29;20054;-79
2022/07/09 06:57:42;;;;;;;13.07;4.10;;;;;;;30.33;33.81;99578.59;30618203;29;20122;-80
2022/07/09 07:12:45;;;;;;;8.23;3.55;;;;;;;31.28;30.51;99561.47;30620263;29;20135;-80
2022/07/09 07:27:46;;;;;;;8.20;4.40;;;;;;;31.48;30.05;99551.91;30618610;29;20079;-79
2022/07/09 07:42:49;;;;;;;9.32;3.70;;;;;;;32.08;27.74;99540.56;30627111;29;20079;-79
2022/07/09 07:57:51;;;;;;;7.13;3.45;;;;;;;32.43;26.68;99532.78;30606809;29;20048;-78
2022/07/09 08:12:53;;;;;;;10.30;3.13;;;;;;;33.23;26.11;99531.84;30628787;29;20058;-79
2022/07/09 08:27:55;;;;;;;6.93;2.97;;;;;;;34.04;24.93;99515.22;30630174;29;20059;-80
2022/07/09 08:43:01;;;;;;;13.57;3.88;;;;;;;35.12;23.50;99509.25;30642939;29;20059;-80
2022/07/09 08:58:03;;;;;;;9.50;3.10;;;;;;;35.42;22.61;99495.69;30673745;28;20059;-79
2022/07/09 09:13:14;;;;;;;8.27;2.92;;;;;;;35.77;21.95;99493.75;30637397;29;20077;-78
2022/07/09 09:28:16;;;;;;;8.70;2.90;;;;;;;36.07;22.12;99461.00;30642465;29;20056;-80
2022/07/09 09:43:21;;;;;;;10.90;3.53;;;;;;;36.34;21.49;99445.69;30624576;28;20062;-78
2022/07/09 09:58:23;;;;;;;8.25;2.65;;;;;;;37.11;21.09;99430.41;30612861;29;20089;-78
2022/07/09 10:13:25;;;;;;;6.65;2.47;;;;;;;37.85;20.81;99430.28;30648937;28;20060;-79
2022/07/09 10:28:27;;;;;;;7.53;5.10;;;;;;;37.47;21.56;99429.66;30625303;29;20070;-77
2022/07/09 10:43:44;;;;;;;3.15;2.13;;;;;;;38.33;21.09;99405.91;30615579;28;20060;-76
2022/07/09 10:58:48;;;;;;;9.95;2.90;;;;;;;36.34;23.32;99394.84;30688725;28;20058;-79
2022/07/09 11:13:51;;;;;;;6.40;2.63;;;;;;;37.75;22.99;99364.63;30726637;28;20132;-78
2022/07/09 11:28:53;;;;;;;4.13;2.78;;;;;;;36.55;23.06;99361.50;30709374;28;20102;-79
2022/07/09 11:43:55;;;;;;;8.70;3.38;;;;;;;35.30;24.56;99351.75;30738354;28;20049;-78
2022/07/09 11:58:57;;;;;;;12.63;2.85;;;;;;;34.72;24.41;99346.63;30717371;28;20416;-79
2022/07/09 12:13:59;;;;;;;17.25;4.75;;;;;;;33.74;26.97;99375.16;30728500;28;20066;-78
2022/07/09 12:29:01;;;;;;;16.88;3.35;;;;;;;30.12;34.99;99369.72;30732564;28;20055;-80
2022/07/09 12:44:03;;;;;;;7.72;3.83;;;;;;;25.24;58.20;99372.59;30702267;28;20056;-77
2022/07/09 12:59:06;;;;;;;11.27;5.00;;;;;;;25.84;51.86;99377.34;30694175;28;20394;-78
2022/07/09 13:14:08;;;;;;;9.88;3.75;;;;;;;25.68;64.16;99392.38;30743753;28;20057;-78
2022/07/09 13:29:10;;;;;;;;;;;;;;;26.48;54.27;99438.00;30720481;28;20086;-80
2022/07/09 13:44:12;;;;;;;13.20;4.63;;;;;;;27.38;46.89;99425.97;30694897;28;19929;-77
2022/07/09 13:59:14;;;;;;;13.98;6.07;;;;;;;27.37;47.73;99444.00;30683539;28;20047;-83
2022/07/09 14:14:16;;;;;;;18.38;8.35;;;;;;;27.16;45.77;99440.56;30707567;28;20490;-77
2022/07/09 14:29:18;;;;;;;24.40;11.40;;;;;;;27.41;44.17;99443.63;30685758;28;20070;-80
2022/07/09 14:44:24;;;;;;;13.68;5.63;;;;;;;27.73;42.86;99432.81;30696983;28;20079;-82
2022/07/09 14:59:26;;;;;;;4.80;2.17;;;;;;;28.08;40.80;99436.81;30692448;28;20051;-83
2022/07/09 15:14:29;;;;;;;4.30;2.08;;;;;;;28.37;39.54;99436.66;30685224;28;20065;-83
2022/07/09 15:29:31;;;;;;;3.45;1.58;;;;;;;28.31;38.73;99422.16;30720325;28;20066;-80
2022/07/09 15:44:34;;;;;;;2.92;1.77;;;;;;;28.18;38.20;99398.66;30731541;28;20055;-81
2022/07/09 15:59:36;;;;;;;5.93;1.50;;;;;;;28.01;37.20;99395.69;30699183;28;20062;-81
2022/07/09 16:14:38;;;;;;;6.28;1.15;;;;;;;27.82;36.32;99364.63;30707541;28;20055;-83
2022/07/09 16:29:40;;;;;;;5.50;1.45;;;;;;;27.78;35.89;99330.78;30701376;28;20059;-83
2022/07/09 16:44:42;;;;;;;7.50;2.33;;;;;;;27.66;35.92;99322.00;30700670;28;20051;-82
2022/07/09 16:59:44;;;;;;;4.88;1.70;;;;;;;27.52;37.48;99307.47;30707225;28;20064;-83
2022/07/09 17:15:07;;;;;;;3.22;1.67;;;;;;;27.15;39.00;99297.00;30732425;28;20098;-84
2022/07/09 17:30:09;;;;;;;10.13;2.90;;;;;;;26.77;40.14;99308.69;30692376;29;20058;-83
2022/07/09 17:45:12;;;;;;;16.27;5.38;;;;;;;26.28;44.05;99319.84;30697498;28;20399;-82
2022/07/09 18:00:14;;;;;;;13.85;5.55;;;;;;;25.91;46.33;99360.00;30730952;28;20111;-82
2022/07/09 18:15:16;;;;;;;10.13;5.43;;;;;;;25.47;48.58;99390.28;30707705;28;20411;-83
2022/07/09 18:30:18;;;;;;;9.95;3.70;;;;;;;25.19;50.72;99404.00;30718848;28;20067;-78
2022/07/09 18:45:20;;;;;;;;;;;;;;;24.97;51.76;99394.09;30694342;28;20053;-81
2022/07/09 19:00:22;;;;;;;6.30;3.45;;;;;;;24.79;52.39;99378.28;30719910;28;19930;-80
2022/07/09 19:15:24;;;;;;;;;;;;;;;24.80;53.30;99374.22;30710297;28;20488;-80
2022/07/09 19:45:47;;;;;;;4.28;2.90;;;;;;;24.65;54.05;99335.88;30739127;28;20130;-79
2022/07/09 20:00:49;;;;;;;6.83;3.80;;;;;;;24.39;55.15;99333.09;30728046;28;20094;-80
2022/07/09 20:15:51;;;;;;;4.18;2.70;;;;;;;24.31;57.05;99329.47;30786820;28;20115;-80
2022/07/09 20:30:53;;;;;;;2.57;2.10;;;;;;;24.42;55.26;99323.72;30782195;28;20059;-80
2022/07/09 20:45:55;;;;;;;4.73;2.87;;;;;;;24.44;56.28;99316.34;30759466;28;20087;-81
2022/07/09 21:00:57;;;;;;;4.27;3.00;;;;;;;24.16;58.54;99318.84;30761302;28;20428;-81
2022/07/09 21:16:01;;;;;;;5.18;3.58;;;;;;;23.78;59.31;99323.78;30732342;28;20089;-81
2022/07/09 21:31:07;;;;;;;7.20;3.50;;;;;;;23.60;59.84;99336.41;30765418;28;20060;-79
2022/07/09 21:46:09;;;;;;;4.60;3.10;;;;;;;23.38;59.23;99309.75;30766394;28;20139;-79
2022/07/09 22:01:11;;;;;;;6.93;3.80;;;;;;;23.05;59.82;99302.66;30749694;28;20055;-80
2022/07/09 22:16:14;;;;;;;13.07;6.50;;;;;;;23.02;61.21;99305.69;30730503;28;20055;-79
2022/07/09 22:31:16;;;;;;;7.30;4.70;;;;;;;22.71;62.92;99276.63;30726471;28;20056;-80
2022/07/09 22:46:18;;;;;;;25.67;15.33;;;;;;;22.47;64.87;99263.56;30721907;28;20039;-80
2022/07/09 23:01:20;;;;;;;15.23;4.87;;;;;;;22.30;65.36;99244.41;30708353;28;20589;-80
2022/07/09 23:16:27;;;;;;;8.53;4.97;;;;;;;22.14;66.65;99241.84;30720495;28;20055;-80
2022/07/09 23:31:30;;;;;;;8.95;4.97;;;;;;;22.10;67.02;99215.25;30731122;28;20417;-80
2022/07/09 23:46:32;;;;;;;10.23;5.37;;;;;;;22.30;66.57;99210.50;30751377;28;20062;-80
